sensor_id;sensor_type;location;lat;lon;timestamp;P1;durP1;ratioP1;P2;durP2;ratioP2
16854;SDS011;8543;54.522;18.550;2024-03-08T00:00:26;14.20;;;7.90;;
16854;SDS011;8543;54.522;18.550;2024-03-08T00:02:52;14.90;;;7.90;;
16854;SDS011;8543;54.522;18.550;2024-03-08T00:05:19;17.60;;;8.70;;
16854;SDS011;8543;54.522;18.550;2024-03-08T00:07:44;16.10;;;9.10;;
16854;SDS011;8543;54.522;18.550;2024-03-08T00:10:10;16.30;;;8.60;;
16854;SDS011;8543;54.522;18.550;2024-03-08T00:15:11;16.60;;;9.60;;
16854;SDS011;8543;54.522;18.550;2024-03-08T00:17:39;14.70;;;8.20;;
16854;SDS011;8543;54.522;18.550;2024-03-08T00:20:06;13.90;;;8.10;;
16854;SDS011;8543;54.522;18.550;2024-03-08T00:22:37;13.00;;;7.60;;
16854;SDS011;8543;54.522;18.550;2024-03-08T00:25:06;12.80;;;7.80;;
16854;SDS011;8543;54.522;18.550;2024-03-08T00:27:35;13.00;;;7.60;;
16854;SDS011;8543;54.522;18.550;2024-03-08T00:30:00;15.20;;;7.90;;
16854;SDS011;8543;54.522;18.550;2024-03-08T00:32:26;12.20;;;7.30;;
16854;SDS011;8543;54.522;18.550;2024-03-08T00:34:56;13.70;;;8.10;;
16854;SDS011;8543;54.522;18.550;2024-03-08T00:37:22;12.30;;;7.20;;
16854;SDS011;8543;54.522;18.550;2024-03-08T00:39:51;13.90;;;8.10;;
16854;SDS011;8543;54.522;18.550;2024-03-08T00:42:19;11.00;;;7.40;;
16854;SDS011;8543;54.522;18.550;2024-03-08T00:44:45;16.90;;;7.90;;
16854;SDS011;8543;54.522;18.550;2024-03-08T00:47:11;13.20;;;7.80;;
16854;SDS011;8543;54.522;18.550;2024-03-08T00:49:36;13.50;;;7.70;;
16854;SDS011;8543;54.522;18.550;2024-03-08T00:52:03;13.70;;;7.90;;
16854;SDS011;8543;54.522;18.550;2024-03-08T00:54:31;14.70;;;7.90;;
16854;SDS011;8543;54.522;18.550;2024-03-08T00:56:56;15.10;;;7.90;;
16854;SDS011;8543;54.522;18.550;2024-03-08T00:59:22;12.30;;;7.30;;
16854;SDS011;8543;54.522;18.550;2024-03-08T01:01:47;13.80;;;7.40;;
16854;SDS011;8543;54.522;18.550;2024-03-08T01:04:13;13.80;;;8.10;;
16854;SDS011;8543;54.522;18.550;2024-03-08T01:06:38;14.50;;;7.20;;
16854;SDS011;8543;54.522;18.550;2024-03-08T01:09:06;13.60;;;7.00;;
16854;SDS011;8543;54.522;18.550;2024-03-08T01:11:32;13.20;;;7.50;;
16854;SDS011;8543;54.522;18.550;2024-03-08T01:13:59;13.60;;;7.50;;
16854;SDS011;8543;54.522;18.550;2024-03-08T01:16:24;12.40;;;7.00;;
16854;SDS011;8543;54.522;18.550;2024-03-08T01:18:49;14.20;;;8.30;;
16854;SDS011;8543;54.522;18.550;2024-03-08T01:21:15;15.80;;;8.60;;
16854;SDS011;8543;54.522;18.550;2024-03-08T01:23:40;18.70;;;9.10;;
16854;SDS011;8543;54.522;18.550;2024-03-08T01:26:06;21.50;;;11.00;;
16854;SDS011;8543;54.522;18.550;2024-03-08T01:28:31;17.90;;;9.40;;
16854;SDS011;8543;54.522;18.550;2024-03-08T01:30:58;17.60;;;9.20;;
16854;SDS011;8543;54.522;18.550;2024-03-08T01:33:24;16.60;;;8.80;;
16854;SDS011;8543;54.522;18.550;2024-03-08T01:35:51;16.70;;;7.70;;
16854;SDS011;8543;54.522;18.550;2024-03-08T01:38:17;12.60;;;7.40;;
16854;SDS011;8543;54.522;18.550;2024-03-08T01:40:43;13.30;;;7.20;;
16854;SDS011;8543;54.522;18.550;2024-03-08T01:43:18;14.10;;;7.80;;
16854;SDS011;8543;54.522;18.550;2024-03-08T01:45:45;13.20;;;7.80;;
16854;SDS011;8543;54.522;18.550;2024-03-08T01:48:10;12.60;;;6.80;;
16854;SDS011;8543;54.522;18.550;2024-03-08T01:50:37;13.00;;;7.10;;
16854;SDS011;8543;54.522;18.550;2024-03-08T01:53:04;12.50;;;7.20;;
16854;SDS011;8543;54.522;18.550;2024-03-08T01:55:30;13.80;;;7.50;;
16854;SDS011;8543;54.522;18.550;2024-03-08T01:57:56;11.80;;;6.70;;
16854;SDS011;8543;54.522;18.550;2024-03-08T02:00:22;12.80;;;7.00;;
16854;SDS011;8543;54.522;18.550;2024-03-08T02:02:49;14.30;;;7.60;;
16854;SDS011;8543;54.522;18.550;2024-03-08T02:05:15;12.30;;;6.80;;
16854;SDS011;8543;54.522;18.550;2024-03-08T02:07:41;11.20;;;7.10;;
16854;SDS011;8543;54.522;18.550;2024-03-08T02:10:09;14.70;;;7.70;;
16854;SDS011;8543;54.522;18.550;2024-03-08T02:12:35;13.10;;;7.50;;
16854;SDS011;8543;54.522;18.550;2024-03-08T02:15:01;14.80;;;8.20;;
16854;SDS011;8543;54.522;18.550;2024-03-08T02:17:26;16.90;;;8.70;;
16854;SDS011;8543;54.522;18.550;2024-03-08T02:19:51;17.80;;;9.20;;
16854;SDS011;8543;54.522;18.550;2024-03-08T02:22:17;18.40;;;9.50;;
16854;SDS011;8543;54.522;18.550;2024-03-08T02:24:42;15.30;;;9.00;;
16854;SDS011;8543;54.522;18.550;2024-03-08T02:27:08;12.80;;;7.90;;
16854;SDS011;8543;54.522;18.550;2024-03-08T02:29:36;14.30;;;8.80;;
16854;SDS011;8543;54.522;18.550;2024-03-08T02:32:02;13.60;;;7.20;;
16854;SDS011;8543;54.522;18.550;2024-03-08T02:34:28;11.40;;;5.80;;
16854;SDS011;8543;54.522;18.550;2024-03-08T02:36:54;10.70;;;6.80;;
16854;SDS011;8543;54.522;18.550;2024-03-08T02:39:21;10.70;;;6.60;;
16854;SDS011;8543;54.522;18.550;2024-03-08T02:41:47;11.60;;;7.10;;
16854;SDS011;8543;54.522;18.550;2024-03-08T02:44:12;13.90;;;6.80;;
16854;SDS011;8543;54.522;18.550;2024-03-08T02:46:38;12.00;;;6.80;;
16854;SDS011;8543;54.522;18.550;2024-03-08T02:49:03;12.60;;;7.20;;
16854;SDS011;8543;54.522;18.550;2024-03-08T02:51:29;11.00;;;6.90;;
16854;SDS011;8543;54.522;18.550;2024-03-08T02:53:54;12.20;;;7.30;;
16854;SDS011;8543;54.522;18.550;2024-03-08T02:56:19;11.10;;;6.60;;
16854;SDS011;8543;54.522;18.550;2024-03-08T02:58:46;11.00;;;6.20;;
16854;SDS011;8543;54.522;18.550;2024-03-08T03:01:14;8.80;;;5.70;;
16854;SDS011;8543;54.522;18.550;2024-03-08T03:03:40;13.50;;;6.60;;
16854;SDS011;8543;54.522;18.550;2024-03-08T03:06:06;10.40;;;5.70;;
16854;SDS011;8543;54.522;18.550;2024-03-08T03:08:32;9.20;;;5.30;;
16854;SDS011;8543;54.522;18.550;2024-03-08T03:10:57;10.10;;;5.00;;
16854;SDS011;8543;54.522;18.550;2024-03-08T03:13:23;8.60;;;5.20;;
16854;SDS011;8543;54.522;18.550;2024-03-08T03:15:48;10.80;;;6.40;;
16854;SDS011;8543;54.522;18.550;2024-03-08T03:18:13;12.10;;;7.90;;
16854;SDS011;8543;54.522;18.550;2024-03-08T03:20:40;14.30;;;8.40;;
16854;SDS011;8543;54.522;18.550;2024-03-08T03:23:07;14.50;;;9.10;;
16854;SDS011;8543;54.522;18.550;2024-03-08T03:25:39;18.50;;;9.70;;
16854;SDS011;8543;54.522;18.550;2024-03-08T03:28:06;12.40;;;7.50;;
16854;SDS011;8543;54.522;18.550;2024-03-08T03:30:32;13.40;;;7.90;;
16854;SDS011;8543;54.522;18.550;2024-03-08T03:32:58;13.20;;;7.30;;
16854;SDS011;8543;54.522;18.550;2024-03-08T03:35:31;11.40;;;7.80;;
16854;SDS011;8543;54.522;18.550;2024-03-08T03:37:57;10.90;;;7.00;;
16854;SDS011;8543;54.522;18.550;2024-03-08T03:40:32;10.70;;;6.30;;
16854;SDS011;8543;54.522;18.550;2024-03-08T03:42:58;12.10;;;6.80;;
16854;SDS011;8543;54.522;18.550;2024-03-08T03:45:24;11.60;;;6.80;;
16854;SDS011;8543;54.522;18.550;2024-03-08T03:47:49;10.00;;;6.10;;
16854;SDS011;8543;54.522;18.550;2024-03-08T03:50:15;12.70;;;6.70;;
16854;SDS011;8543;54.522;18.550;2024-03-08T03:52:41;12.00;;;7.00;;
16854;SDS011;8543;54.522;18.550;2024-03-08T03:55:07;8.80;;;6.20;;
16854;SDS011;8543;54.522;18.550;2024-03-08T03:57:33;12.80;;;6.80;;
16854;SDS011;8543;54.522;18.550;2024-03-08T03:59:58;8.40;;;5.80;;
16854;SDS011;8543;54.522;18.550;2024-03-08T04:02:24;10.70;;;5.90;;
16854;SDS011;8543;54.522;18.550;2024-03-08T04:04:51;10.50;;;6.50;;
16854;SDS011;8543;54.522;18.550;2024-03-08T04:07:20;12.10;;;6.50;;
16854;SDS011;8543;54.522;18.550;2024-03-08T04:09:45;10.20;;;6.70;;
16854;SDS011;8543;54.522;18.550;2024-03-08T04:12:11;16.60;;;7.70;;
16854;SDS011;8543;54.522;18.550;2024-03-08T04:14:37;16.20;;;9.00;;
16854;SDS011;8543;54.522;18.550;2024-03-08T04:17:04;18.00;;;9.80;;
16854;SDS011;8543;54.522;18.550;2024-03-08T04:19:31;12.20;;;8.00;;
16854;SDS011;8543;54.522;18.550;2024-03-08T04:21:56;12.90;;;7.70;;
16854;SDS011;8543;54.522;18.550;2024-03-08T04:24:22;11.80;;;7.30;;
16854;SDS011;8543;54.522;18.550;2024-03-08T04:26:47;11.70;;;6.70;;
16854;SDS011;8543;54.522;18.550;2024-03-08T04:29:12;11.10;;;6.80;;
16854;SDS011;8543;54.522;18.550;2024-03-08T04:31:39;10.50;;;6.20;;
16854;SDS011;8543;54.522;18.550;2024-03-08T04:34:05;10.40;;;6.00;;
16854;SDS011;8543;54.522;18.550;2024-03-08T04:36:31;12.00;;;7.40;;
16854;SDS011;8543;54.522;18.550;2024-03-08T04:38:56;10.00;;;6.20;;
16854;SDS011;8543;54.522;18.550;2024-03-08T04:41:22;11.80;;;7.50;;
16854;SDS011;8543;54.522;18.550;2024-03-08T04:43:48;10.80;;;6.00;;
16854;SDS011;8543;54.522;18.550;2024-03-08T04:46:14;11.60;;;6.70;;
16854;SDS011;8543;54.522;18.550;2024-03-08T04:48:39;9.40;;;6.50;;
16854;SDS011;8543;54.522;18.550;2024-03-08T04:51:07;9.50;;;5.80;;
16854;SDS011;8543;54.522;18.550;2024-03-08T04:53:33;12.10;;;6.70;;
16854;SDS011;8543;54.522;18.550;2024-03-08T04:55:59;10.50;;;6.10;;
16854;SDS011;8543;54.522;18.550;2024-03-08T04:58:25;7.40;;;4.70;;
16854;SDS011;8543;54.522;18.550;2024-03-08T05:00:50;9.80;;;5.20;;
16854;SDS011;8543;54.522;18.550;2024-03-08T05:03:16;7.70;;;4.70;;
16854;SDS011;8543;54.522;18.550;2024-03-08T05:05:41;8.70;;;4.80;;
16854;SDS011;8543;54.522;18.550;2024-03-08T05:08:07;10.30;;;6.10;;
16854;SDS011;8543;54.522;18.550;2024-03-08T05:10:32;9.80;;;5.40;;
16854;SDS011;8543;54.522;18.550;2024-03-08T05:12:58;10.70;;;7.00;;
16854;SDS011;8543;54.522;18.550;2024-03-08T05:15:23;10.00;;;4.90;;
16854;SDS011;8543;54.522;18.550;2024-03-08T05:17:48;9.40;;;5.20;;
16854;SDS011;8543;54.522;18.550;2024-03-08T05:20:14;9.90;;;5.70;;
16854;SDS011;8543;54.522;18.550;2024-03-08T05:22:42;10.00;;;5.20;;
16854;SDS011;8543;54.522;18.550;2024-03-08T05:25:08;11.30;;;5.80;;
16854;SDS011;8543;54.522;18.550;2024-03-08T05:27:34;10.40;;;5.80;;
16854;SDS011;8543;54.522;18.550;2024-03-08T05:30:01;10.70;;;5.20;;
16854;SDS011;8543;54.522;18.550;2024-03-08T05:32:29;10.70;;;5.40;;
16854;SDS011;8543;54.522;18.550;2024-03-08T05:34:54;9.20;;;5.70;;
16854;SDS011;8543;54.522;18.550;2024-03-08T05:37:20;9.40;;;5.40;;
16854;SDS011;8543;54.522;18.550;2024-03-08T05:39:45;9.10;;;6.20;;
16854;SDS011;8543;54.522;18.550;2024-03-08T05:42:11;11.90;;;6.20;;
16854;SDS011;8543;54.522;18.550;2024-03-08T05:44:36;11.90;;;6.40;;
16854;SDS011;8543;54.522;18.550;2024-03-08T05:47:02;8.20;;;4.80;;
16854;SDS011;8543;54.522;18.550;2024-03-08T05:49:27;10.30;;;4.70;;
16854;SDS011;8543;54.522;18.550;2024-03-08T05:51:53;10.30;;;5.50;;
16854;SDS011;8543;54.522;18.550;2024-03-08T05:54:19;9.40;;;4.90;;
16854;SDS011;8543;54.522;18.550;2024-03-08T05:56:47;12.20;;;6.10;;
16854;SDS011;8543;54.522;18.550;2024-03-08T05:59:12;13.70;;;5.70;;
16854;SDS011;8543;54.522;18.550;2024-03-08T06:01:38;10.80;;;5.60;;
16854;SDS011;8543;54.522;18.550;2024-03-08T06:04:05;12.40;;;6.20;;
16854;SDS011;8543;54.522;18.550;2024-03-08T06:06:32;12.20;;;5.90;;
16854;SDS011;8543;54.522;18.550;2024-03-08T06:08:57;10.80;;;5.80;;
16854;SDS011;8543;54.522;18.550;2024-03-08T06:11:24;11.50;;;5.80;;
16854;SDS011;8543;54.522;18.550;2024-03-08T06:13:51;12.60;;;6.00;;
16854;SDS011;8543;54.522;18.550;2024-03-08T06:16:20;11.30;;;6.80;;
16854;SDS011;8543;54.522;18.550;2024-03-08T06:18:45;10.30;;;6.60;;
16854;SDS011;8543;54.522;18.550;2024-03-08T06:21:12;10.60;;;6.00;;
16854;SDS011;8543;54.522;18.550;2024-03-08T06:23:38;12.10;;;6.80;;
16854;SDS011;8543;54.522;18.550;2024-03-08T06:26:04;17.20;;;7.90;;
16854;SDS011;8543;54.522;18.550;2024-03-08T06:28:30;17.70;;;8.70;;
16854;SDS011;8543;54.522;18.550;2024-03-08T06:30:57;10.60;;;5.80;;
16854;SDS011;8543;54.522;18.550;2024-03-08T06:33:23;14.40;;;7.40;;
16854;SDS011;8543;54.522;18.550;2024-03-08T06:35:51;10.60;;;5.60;;
16854;SDS011;8543;54.522;18.550;2024-03-08T06:38:17;12.00;;;6.30;;
16854;SDS011;8543;54.522;18.550;2024-03-08T06:40:42;11.90;;;6.20;;
16854;SDS011;8543;54.522;18.550;2024-03-08T06:43:07;7.60;;;4.70;;
16854;SDS011;8543;54.522;18.550;2024-03-08T06:45:33;11.00;;;5.80;;
16854;SDS011;8543;54.522;18.550;2024-03-08T06:47:58;14.20;;;6.80;;
16854;SDS011;8543;54.522;18.550;2024-03-08T06:50:24;12.90;;;7.50;;
16854;SDS011;8543;54.522;18.550;2024-03-08T06:52:49;14.60;;;7.00;;
16854;SDS011;8543;54.522;18.550;2024-03-08T06:55:18;17.40;;;7.20;;
16854;SDS011;8543;54.522;18.550;2024-03-08T06:57:47;13.40;;;7.00;;
16854;SDS011;8543;54.522;18.550;2024-03-08T07:00:12;14.20;;;7.80;;
16854;SDS011;8543;54.522;18.550;2024-03-08T07:02:43;14.20;;;7.70;;
16854;SDS011;8543;54.522;18.550;2024-03-08T07:05:11;16.50;;;8.60;;
16854;SDS011;8543;54.522;18.550;2024-03-08T07:07:36;20.60;;;9.50;;
16854;SDS011;8543;54.522;18.550;2024-03-08T07:10:02;18.70;;;9.00;;
16854;SDS011;8543;54.522;18.550;2024-03-08T07:12:28;15.80;;;8.60;;
16854;SDS011;8543;54.522;18.550;2024-03-08T07:14:53;13.50;;;7.50;;
16854;SDS011;8543;54.522;18.550;2024-03-08T07:17:19;16.90;;;8.50;;
16854;SDS011;8543;54.522;18.550;2024-03-08T07:19:44;18.20;;;8.90;;
16854;SDS011;8543;54.522;18.550;2024-03-08T07:22:10;20.00;;;11.40;;
16854;SDS011;8543;54.522;18.550;2024-03-08T07:24:36;16.70;;;9.00;;
16854;SDS011;8543;54.522;18.550;2024-03-08T07:27:01;12.90;;;8.10;;
16854;SDS011;8543;54.522;18.550;2024-03-08T07:29:27;16.30;;;8.10;;
16854;SDS011;8543;54.522;18.550;2024-03-08T07:31:53;20.00;;;9.50;;
16854;SDS011;8543;54.522;18.550;2024-03-08T07:34:36;21.40;;;9.50;;
16854;SDS011;8543;54.522;18.550;2024-03-08T07:37:02;18.80;;;8.90;;
16854;SDS011;8543;54.522;18.550;2024-03-08T07:39:29;16.60;;;8.40;;
16854;SDS011;8543;54.522;18.550;2024-03-08T07:41:54;13.60;;;7.10;;
16854;SDS011;8543;54.522;18.550;2024-03-08T07:44:20;8.80;;;5.00;;
16854;SDS011;8543;54.522;18.550;2024-03-08T07:46:45;11.10;;;5.00;;
16854;SDS011;8543;54.522;18.550;2024-03-08T07:49:11;10.00;;;5.40;;
16854;SDS011;8543;54.522;18.550;2024-03-08T07:51:39;15.60;;;8.60;;
16854;SDS011;8543;54.522;18.550;2024-03-08T07:54:05;11.80;;;7.30;;
16854;SDS011;8543;54.522;18.550;2024-03-08T07:56:30;11.70;;;6.20;;
16854;SDS011;8543;54.522;18.550;2024-03-08T07:58:56;11.70;;;6.60;;
16854;SDS011;8543;54.522;18.550;2024-03-08T08:01:21;11.20;;;6.40;;
16854;SDS011;8543;54.522;18.550;2024-03-08T08:03:47;10.60;;;5.80;;
16854;SDS011;8543;54.522;18.550;2024-03-08T08:06:14;11.30;;;5.90;;
16854;SDS011;8543;54.522;18.550;2024-03-08T08:08:44;9.30;;;6.20;;
16854;SDS011;8543;54.522;18.550;2024-03-08T08:11:10;11.10;;;6.90;;
16854;SDS011;8543;54.522;18.550;2024-03-08T08:13:40;11.80;;;7.60;;
16854;SDS011;8543;54.522;18.550;2024-03-08T08:16:07;11.60;;;7.10;;
16854;SDS011;8543;54.522;18.550;2024-03-08T08:18:33;13.30;;;7.10;;
16854;SDS011;8543;54.522;18.550;2024-03-08T08:20:58;13.60;;;7.20;;
16854;SDS011;8543;54.522;18.550;2024-03-08T08:23:27;10.40;;;6.20;;
16854;SDS011;8543;54.522;18.550;2024-03-08T08:25:52;14.90;;;7.30;;
16854;SDS011;8543;54.522;18.550;2024-03-08T08:28:18;11.40;;;6.40;;
16854;SDS011;8543;54.522;18.550;2024-03-08T08:30:46;10.00;;;6.50;;
16854;SDS011;8543;54.522;18.550;2024-03-08T08:33:11;9.20;;;6.30;;
16854;SDS011;8543;54.522;18.550;2024-03-08T08:35:37;9.90;;;6.10;;
16854;SDS011;8543;54.522;18.550;2024-03-08T08:38:03;10.80;;;6.60;;
16854;SDS011;8543;54.522;18.550;2024-03-08T08:40:35;9.70;;;6.20;;
16854;SDS011;8543;54.522;18.550;2024-03-08T08:43:02;9.30;;;6.20;;
16854;SDS011;8543;54.522;18.550;2024-03-08T08:45:29;13.70;;;6.60;;
16854;SDS011;8543;54.522;18.550;2024-03-08T08:47:55;12.30;;;6.70;;
16854;SDS011;8543;54.522;18.550;2024-03-08T08:50:21;12.10;;;7.00;;
16854;SDS011;8543;54.522;18.550;2024-03-08T08:52:50;14.20;;;7.40;;
16854;SDS011;8543;54.522;18.550;2024-03-08T08:55:16;13.00;;;6.80;;
16854;SDS011;8543;54.522;18.550;2024-03-08T08:57:45;10.90;;;6.60;;
16854;SDS011;8543;54.522;18.550;2024-03-08T09:00:12;11.10;;;6.80;;
16854;SDS011;8543;54.522;18.550;2024-03-08T09:02:40;12.10;;;6.70;;
16854;SDS011;8543;54.522;18.550;2024-03-08T09:05:06;11.30;;;6.50;;
16854;SDS011;8543;54.522;18.550;2024-03-08T09:07:33;10.40;;;6.00;;
16854;SDS011;8543;54.522;18.550;2024-03-08T09:09:59;13.10;;;6.00;;
16854;SDS011;8543;54.522;18.550;2024-03-08T09:12:27;10.30;;;6.80;;
16854;SDS011;8543;54.522;18.550;2024-03-08T09:14:53;12.20;;;6.80;;
16854;SDS011;8543;54.522;18.550;2024-03-08T09:17:18;18.40;;;7.10;;
16854;SDS011;8543;54.522;18.550;2024-03-08T09:19:48;15.70;;;6.70;;
16854;SDS011;8543;54.522;18.550;2024-03-08T09:22:14;8.60;;;5.70;;
16854;SDS011;8543;54.522;18.550;2024-03-08T09:24:39;10.10;;;5.70;;
16854;SDS011;8543;54.522;18.550;2024-03-08T09:27:05;9.60;;;5.50;;
16854;SDS011;8543;54.522;18.550;2024-03-08T09:29:31;9.00;;;5.60;;
16854;SDS011;8543;54.522;18.550;2024-03-08T09:31:56;9.40;;;5.60;;
16854;SDS011;8543;54.522;18.550;2024-03-08T09:34:21;16.00;;;6.10;;
16854;SDS011;8543;54.522;18.550;2024-03-08T09:36:47;12.50;;;6.40;;
16854;SDS011;8543;54.522;18.550;2024-03-08T09:39:12;10.90;;;6.50;;
16854;SDS011;8543;54.522;18.550;2024-03-08T09:41:45;11.50;;;6.40;;
16854;SDS011;8543;54.522;18.550;2024-03-08T09:44:13;9.80;;;6.40;;
16854;SDS011;8543;54.522;18.550;2024-03-08T09:46:39;9.20;;;5.40;;
16854;SDS011;8543;54.522;18.550;2024-03-08T09:49:05;8.70;;;5.40;;
16854;SDS011;8543;54.522;18.550;2024-03-08T09:51:31;7.10;;;4.80;;
16854;SDS011;8543;54.522;18.550;2024-03-08T09:53:59;7.40;;;5.20;;
16854;SDS011;8543;54.522;18.550;2024-03-08T09:56:25;7.50;;;4.40;;
16854;SDS011;8543;54.522;18.550;2024-03-08T09:58:52;6.70;;;4.40;;
16854;SDS011;8543;54.522;18.550;2024-03-08T10:01:27;6.20;;;4.20;;
16854;SDS011;8543;54.522;18.550;2024-03-08T10:03:52;5.40;;;3.70;;
16854;SDS011;8543;54.522;18.550;2024-03-08T10:06:22;6.80;;;4.10;;
16854;SDS011;8543;54.522;18.550;2024-03-08T10:08:48;6.60;;;4.20;;
16854;SDS011;8543;54.522;18.550;2024-03-08T10:11:14;6.00;;;3.70;;
16854;SDS011;8543;54.522;18.550;2024-03-08T10:13:39;6.60;;;3.60;;
16854;SDS011;8543;54.522;18.550;2024-03-08T10:16:05;5.60;;;4.10;;
16854;SDS011;8543;54.522;18.550;2024-03-08T10:18:32;6.80;;;4.00;;
16854;SDS011;8543;54.522;18.550;2024-03-08T10:21:04;6.60;;;3.80;;
16854;SDS011;8543;54.522;18.550;2024-03-08T10:23:32;7.50;;;3.70;;
16854;SDS011;8543;54.522;18.550;2024-03-08T10:26:08;6.60;;;4.20;;
16854;SDS011;8543;54.522;18.550;2024-03-08T10:28:34;7.50;;;4.50;;
16854;SDS011;8543;54.522;18.550;2024-03-08T10:31:00;9.20;;;5.10;;
16854;SDS011;8543;54.522;18.550;2024-03-08T10:33:25;8.70;;;5.50;;
16854;SDS011;8543;54.522;18.550;2024-03-08T10:35:51;7.00;;;5.30;;
16854;SDS011;8543;54.522;18.550;2024-03-08T10:38:16;8.80;;;5.00;;
16854;SDS011;8543;54.522;18.550;2024-03-08T10:40:44;9.20;;;5.50;;
16854;SDS011;8543;54.522;18.550;2024-03-08T10:43:11;7.60;;;5.50;;
16854;SDS011;8543;54.522;18.550;2024-03-08T10:45:43;8.30;;;5.60;;
16854;SDS011;8543;54.522;18.550;2024-03-08T10:51:02;8.10;;;5.40;;
16854;SDS011;8543;54.522;18.550;2024-03-08T10:53:27;8.00;;;5.70;;
16854;SDS011;8543;54.522;18.550;2024-03-08T10:55:54;9.40;;;6.10;;
16854;SDS011;8543;54.522;18.550;2024-03-08T10:58:21;7.50;;;5.50;;
16854;SDS011;8543;54.522;18.550;2024-03-08T11:00:47;9.50;;;6.40;;
16854;SDS011;8543;54.522;18.550;2024-03-08T11:06:07;7.30;;;5.50;;
16854;SDS011;8543;54.522;18.550;2024-03-08T11:08:35;7.60;;;6.10;;
16854;SDS011;8543;54.522;18.550;2024-03-08T11:11:01;8.60;;;6.40;;
16854;SDS011;8543;54.522;18.550;2024-03-08T11:16:02;8.30;;;6.30;;
16854;SDS011;8543;54.522;18.550;2024-03-08T11:18:33;9.40;;;6.10;;
16854;SDS011;8543;54.522;18.550;2024-03-08T11:21:02;11.30;;;7.00;;
16854;SDS011;8543;54.522;18.550;2024-03-08T11:23:30;8.40;;;6.20;;
16854;SDS011;8543;54.522;18.550;2024-03-08T11:25:56;9.20;;;6.80;;
16854;SDS011;8543;54.522;18.550;2024-03-08T11:28:24;8.50;;;6.00;;
16854;SDS011;8543;54.522;18.550;2024-03-08T11:33:23;8.60;;;6.10;;
16854;SDS011;8543;54.522;18.550;2024-03-08T11:35:50;9.20;;;6.40;;
16854;SDS011;8543;54.522;18.550;2024-03-08T11:38:15;9.80;;;6.30;;
16854;SDS011;8543;54.522;18.550;2024-03-08T11:40:41;8.10;;;5.40;;
16854;SDS011;8543;54.522;18.550;2024-03-08T11:43:08;7.80;;;6.30;;
16854;SDS011;8543;54.522;18.550;2024-03-08T11:45:36;9.30;;;6.80;;
16854;SDS011;8543;54.522;18.550;2024-03-08T11:48:03;9.00;;;7.00;;
16854;SDS011;8543;54.522;18.550;2024-03-08T11:50:29;10.40;;;6.70;;
16854;SDS011;8543;54.522;18.550;2024-03-08T11:53:00;10.10;;;6.50;;
16854;SDS011;8543;54.522;18.550;2024-03-08T11:55:27;8.40;;;6.20;;
16854;SDS011;8543;54.522;18.550;2024-03-08T11:58:01;8.70;;;6.60;;
16854;SDS011;8543;54.522;18.550;2024-03-08T12:00:27;10.00;;;7.00;;
16854;SDS011;8543;54.522;18.550;2024-03-08T12:03:03;10.00;;;6.70;;
16854;SDS011;8543;54.522;18.550;2024-03-08T12:05:28;7.70;;;5.30;;
16854;SDS011;8543;54.522;18.550;2024-03-08T12:07:59;8.60;;;5.00;;
16854;SDS011;8543;54.522;18.550;2024-03-08T12:10:25;8.30;;;5.50;;
16854;SDS011;8543;54.522;18.550;2024-03-08T12:12:52;8.90;;;6.10;;
16854;SDS011;8543;54.522;18.550;2024-03-08T12:15:18;9.30;;;6.70;;
16854;SDS011;8543;54.522;18.550;2024-03-08T12:17:46;10.00;;;6.30;;
16854;SDS011;8543;54.522;18.550;2024-03-08T12:20:16;7.30;;;6.10;;
16854;SDS011;8543;54.522;18.550;2024-03-08T12:22:44;8.70;;;6.40;;
16854;SDS011;8543;54.522;18.550;2024-03-08T12:25:12;8.20;;;6.60;;
16854;SDS011;8543;54.522;18.550;2024-03-08T12:27:39;7.80;;;6.00;;
16854;SDS011;8543;54.522;18.550;2024-03-08T12:30:20;7.80;;;5.60;;
16854;SDS011;8543;54.522;18.550;2024-03-08T12:32:48;8.30;;;5.70;;
16854;SDS011;8543;54.522;18.550;2024-03-08T12:35:17;5.90;;;4.10;;
16854;SDS011;8543;54.522;18.550;2024-03-08T12:37:42;4.90;;;3.10;;
16854;SDS011;8543;54.522;18.550;2024-03-08T12:40:09;6.70;;;3.80;;
16854;SDS011;8543;54.522;18.550;2024-03-08T12:42:35;4.70;;;3.00;;
16854;SDS011;8543;54.522;18.550;2024-03-08T12:45:00;4.90;;;3.00;;
16854;SDS011;8543;54.522;18.550;2024-03-08T12:47:27;5.30;;;3.00;;
16854;SDS011;8543;54.522;18.550;2024-03-08T12:49:54;6.60;;;3.90;;
16854;SDS011;8543;54.522;18.550;2024-03-08T12:52:20;5.40;;;3.60;;
16854;SDS011;8543;54.522;18.550;2024-03-08T12:54:46;4.90;;;3.50;;
16854;SDS011;8543;54.522;18.550;2024-03-08T12:57:12;5.40;;;3.90;;
16854;SDS011;8543;54.522;18.550;2024-03-08T12:59:38;5.40;;;3.60;;
16854;SDS011;8543;54.522;18.550;2024-03-08T13:02:04;5.30;;;3.40;;
16854;SDS011;8543;54.522;18.550;2024-03-08T13:04:31;4.60;;;2.30;;
16854;SDS011;8543;54.522;18.550;2024-03-08T13:06:57;4.70;;;2.70;;
16854;SDS011;8543;54.522;18.550;2024-03-08T13:09:23;6.70;;;2.80;;
16854;SDS011;8543;54.522;18.550;2024-03-08T13:11:48;5.20;;;3.20;;
16854;SDS011;8543;54.522;18.550;2024-03-08T13:14:13;4.50;;;3.00;;
16854;SDS011;8543;54.522;18.550;2024-03-08T13:16:39;5.10;;;2.90;;
16854;SDS011;8543;54.522;18.550;2024-03-08T13:19:05;4.60;;;2.90;;
16854;SDS011;8543;54.522;18.550;2024-03-08T13:21:30;7.40;;;3.60;;
16854;SDS011;8543;54.522;18.550;2024-03-08T13:23:56;5.10;;;3.00;;
16854;SDS011;8543;54.522;18.550;2024-03-08T13:26:24;5.20;;;3.20;;
16854;SDS011;8543;54.522;18.550;2024-03-08T13:28:51;4.40;;;2.90;;
16854;SDS011;8543;54.522;18.550;2024-03-08T13:31:21;4.00;;;3.00;;
16854;SDS011;8543;54.522;18.550;2024-03-08T13:33:46;4.50;;;2.50;;
16854;SDS011;8543;54.522;18.550;2024-03-08T13:36:12;6.00;;;2.70;;
16854;SDS011;8543;54.522;18.550;2024-03-08T13:38:41;6.90;;;2.60;;
16854;SDS011;8543;54.522;18.550;2024-03-08T13:41:08;5.70;;;2.70;;
16854;SDS011;8543;54.522;18.550;2024-03-08T13:43:34;4.60;;;3.10;;
16854;SDS011;8543;54.522;18.550;2024-03-08T13:46:01;5.30;;;3.10;;
16854;SDS011;8543;54.522;18.550;2024-03-08T13:48:27;4.30;;;2.70;;
16854;SDS011;8543;54.522;18.550;2024-03-08T13:50:52;5.90;;;3.20;;
16854;SDS011;8543;54.522;18.550;2024-03-08T13:53:18;4.20;;;2.90;;
16854;SDS011;8543;54.522;18.550;2024-03-08T13:55:43;5.40;;;2.90;;
16854;SDS011;8543;54.522;18.550;2024-03-08T13:58:09;5.00;;;2.70;;
16854;SDS011;8543;54.522;18.550;2024-03-08T14:00:35;4.50;;;2.80;;
16854;SDS011;8543;54.522;18.550;2024-03-08T14:03:01;4.40;;;2.80;;
16854;SDS011;8543;54.522;18.550;2024-03-08T14:05:40;6.40;;;2.80;;
16854;SDS011;8543;54.522;18.550;2024-03-08T14:08:08;5.20;;;2.80;;
16854;SDS011;8543;54.522;18.550;2024-03-08T14:10:37;3.20;;;2.40;;
16854;SDS011;8543;54.522;18.550;2024-03-08T14:13:03;4.20;;;2.20;;
16854;SDS011;8543;54.522;18.550;2024-03-08T14:15:33;4.70;;;2.50;;
16854;SDS011;8543;54.522;18.550;2024-03-08T14:18:03;3.60;;;2.20;;
16854;SDS011;8543;54.522;18.550;2024-03-08T14:20:31;3.50;;;2.20;;
16854;SDS011;8543;54.522;18.550;2024-03-08T14:22:57;4.10;;;2.40;;
16854;SDS011;8543;54.522;18.550;2024-03-08T14:25:23;4.00;;;2.60;;
16854;SDS011;8543;54.522;18.550;2024-03-08T14:27:49;4.50;;;2.90;;
16854;SDS011;8543;54.522;18.550;2024-03-08T14:30:18;5.00;;;2.90;;
16854;SDS011;8543;54.522;18.550;2024-03-08T14:32:57;4.50;;;2.80;;
16854;SDS011;8543;54.522;18.550;2024-03-08T14:35:24;3.70;;;2.40;;
16854;SDS011;8543;54.522;18.550;2024-03-08T14:37:50;4.60;;;2.10;;
16854;SDS011;8543;54.522;18.550;2024-03-08T14:40:15;4.40;;;2.40;;
16854;SDS011;8543;54.522;18.550;2024-03-08T14:42:41;4.10;;;3.00;;
16854;SDS011;8543;54.522;18.550;2024-03-08T14:45:08;4.40;;;2.90;;
16854;SDS011;8543;54.522;18.550;2024-03-08T14:47:34;4.70;;;3.00;;
16854;SDS011;8543;54.522;18.550;2024-03-08T14:49:59;5.70;;;2.80;;